createdAt,value
2022-12-16T00:00:27.425Z,1.20
2022-12-16T00:02:56.180Z,1.20
2022-12-16T00:05:24.858Z,1.20
2022-12-16T00:07:53.454Z,1.20
2022-12-16T00:10:23.791Z,1.20
2022-12-16T00:12:53.915Z,1.10
2022-12-16T00:15:23.689Z,1.20
2022-12-16T00:17:52.292Z,1.20
2022-12-16T00:20:20.870Z,1.20
2022-12-16T00:22:49.451Z,1.10
2022-12-16T00:25:18.334Z,1.20
2022-12-16T00:27:46.955Z,1.10
2022-12-16T00:30:17.424Z,1.20
2022-12-16T00:32:45.997Z,1.10
2022-12-16T00:35:14.723Z,1.10
2022-12-16T00:37:43.565Z,1.10
2022-12-16T00:40:13.378Z,1.10
2022-12-16T00:42:42.070Z,1.10
2022-12-16T00:45:11.852Z,1.10
2022-12-16T00:47:43.917Z,1.10
2022-12-16T00:50:13.043Z,1.10
2022-12-16T00:52:41.737Z,1.10
2022-12-16T00:55:12.145Z,1.10
2022-12-16T00:57:41.150Z,1.10
2022-12-16T01:00:13.593Z,1.10
2022-12-16T01:02:44.791Z,1.10
2022-12-16T01:05:17.342Z,1.10
2022-12-16T01:07:46.284Z,1.10
2022-12-16T01:10:15.850Z,1.10
2022-12-16T01:12:44.523Z,1.10
2022-12-16T01:15:15.094Z,1.10
2022-12-16T01:17:45.702Z,1.10
2022-12-16T01:20:14.957Z,1.10
2022-12-16T01:22:43.796Z,1.10
2022-12-16T01:25:14.190Z,1.10
2022-12-16T01:27:42.950Z,1.10
2022-12-16T01:30:13.416Z,1.10
2022-12-16T01:32:42.224Z,1.10
2022-12-16T01:35:43.925Z,1.10
2022-12-16T01:38:02.045Z,1.10
2022-12-16T01:40:31.976Z,1.10
2022-12-16T01:43:00.602Z,1.10
2022-12-16T01:45:35.937Z,1.10
2022-12-16T01:48:20.674Z,1.10
2022-12-16T01:50:54.011Z,1.10
2022-12-16T01:53:23.627Z,1.10
2022-12-16T01:55:56.773Z,1.20
2022-12-16T01:58:31.226Z,1.20
2022-12-16T02:01:00.936Z,1.20
2022-12-16T02:03:36.752Z,1.20
2022-12-16T02:06:08.967Z,1.20
2022-12-16T02:08:37.747Z,1.20
2022-12-16T02:11:43.702Z,1.20
2022-12-16T02:15:18.556Z,1.20
2022-12-16T02:17:59.531Z,1.20
2022-12-16T02:21:21.562Z,1.30
2022-12-16T02:24:36.830Z,1.20
2022-12-16T02:27:50.919Z,1.20
2022-12-16T02:31:01.933Z,1.30
2022-12-16T02:33:48.206Z,1.30
2022-12-16T02:36:43.351Z,1.30
2022-12-16T02:39:21.052Z,1.30
2022-12-16T02:41:58.146Z,1.30
2022-12-16T02:44:46.183Z,1.30
2022-12-16T02:47:16.294Z,1.30
2022-12-16T02:49:51.792Z,1.30
2022-12-16T02:52:24.567Z,1.40
2022-12-16T02:54:59.035Z,1.40
2022-12-16T02:58:05.027Z,1.40
2022-12-16T03:00:49.259Z,1.40
2022-12-16T03:03:27.842Z,1.40
2022-12-16T03:05:59.155Z,1.40
2022-12-16T03:08:35.233Z,1.50
2022-12-16T03:11:08.681Z,1.50
2022-12-16T03:13:43.282Z,1.50
2022-12-16T03:16:18.619Z,1.50
2022-12-16T03:18:55.660Z,1.50
2022-12-16T03:21:30.329Z,1.60
2022-12-16T03:24:04.065Z,1.60
2022-12-16T03:26:39.169Z,1.60
2022-12-16T03:29:15.916Z,1.60
2022-12-16T03:31:50.944Z,1.60
2022-12-16T03:34:33.986Z,1.60
2022-12-16T03:37:08.906Z,1.60
2022-12-16T03:39:45.029Z,1.60
2022-12-16T03:42:17.309Z,1.60
2022-12-16T03:44:47.787Z,1.60
2022-12-16T03:47:23.089Z,1.60
2022-12-16T03:49:53.953Z,1.70
2022-12-16T03:52:22.599Z,1.70
2022-12-16T03:54:51.186Z,1.70
2022-12-16T03:57:20.176Z,1.70
2022-12-16T03:59:48.788Z,1.70
2022-12-16T04:02:17.547Z,1.80
2022-12-16T04:04:46.455Z,1.80
2022-12-16T04:07:22.337Z,1.80
2022-12-16T04:09:53.100Z,1.80
2022-12-16T04:12:40.083Z,1.80
2022-12-16T04:15:32.745Z,1.80
2022-12-16T04:18:19.446Z,1.80
2022-12-16T04:21:11.991Z,1.80
2022-12-16T04:24:05.910Z,1.80
2022-12-16T04:26:55.960Z,1.80
2022-12-16T04:29:25.111Z,1.80
2022-12-16T04:31:54.430Z,1.80
2022-12-16T04:34:25.915Z,1.80
2022-12-16T04:37:12.496Z,1.80
2022-12-16T04:39:59.950Z,1.80
2022-12-16T04:42:46.456Z,1.90
2022-12-16T04:45:33.046Z,1.90
2022-12-16T04:48:19.120Z,1.90
2022-12-16T04:51:05.899Z,1.90
2022-12-16T04:53:51.937Z,1.90
2022-12-16T04:56:39.466Z,1.90
2022-12-16T04:59:25.460Z,1.90
2022-12-16T05:02:11.708Z,1.90
2022-12-16T05:04:57.793Z,2.00
2022-12-16T05:07:44.450Z,2.00
2022-12-16T05:10:30.265Z,2.00
2022-12-16T05:13:17.577Z,2.00
2022-12-16T05:16:03.687Z,2.00
2022-12-16T05:18:49.534Z,2.00
2022-12-16T05:21:35.571Z,2.00
2022-12-16T05:24:21.511Z,2.00
2022-12-16T05:27:12.978Z,2.00
2022-12-16T05:30:00.117Z,2.00
2022-12-16T05:32:54.664Z,2.00
2022-12-16T05:35:41.678Z,2.10
2022-12-16T05:38:27.562Z,2.10
2022-12-16T05:41:19.054Z,2.10
2022-12-16T05:44:05.296Z,2.10
2022-12-16T05:46:52.734Z,2.20
2022-12-16T05:49:39.036Z,2.10
2022-12-16T05:52:25.293Z,2.20
2022-12-16T05:55:11.266Z,2.20
2022-12-16T05:57:57.904Z,2.20
2022-12-16T06:00:44.006Z,2.20
2022-12-16T06:03:34.186Z,2.20
2022-12-16T06:06:20.236Z,2.20
2022-12-16T06:09:20.677Z,2.20
2022-12-16T06:12:06.609Z,2.20
2022-12-16T06:14:52.493Z,2.20
2022-12-16T06:17:40.434Z,2.30
2022-12-16T06:20:29.274Z,2.30
2022-12-16T06:23:15.303Z,2.30
2022-12-16T06:26:02.015Z,2.30
2022-12-16T06:28:47.851Z,2.30
2022-12-16T06:31:34.300Z,2.30
2022-12-16T06:34:20.910Z,2.30
2022-12-16T06:37:08.501Z,2.30
2022-12-16T06:39:54.574Z,2.30
2022-12-16T06:42:40.527Z,2.30
2022-12-16T06:45:32.884Z,2.30
2022-12-16T06:48:20.321Z,2.30
2022-12-16T06:51:06.337Z,2.40
2022-12-16T06:53:53.336Z,2.40
2022-12-16T06:56:39.401Z,2.40
2022-12-16T06:59:25.239Z,2.40
2022-12-16T07:02:11.251Z,2.40
2022-12-16T07:04:57.287Z,2.40
2022-12-16T07:07:43.582Z,2.40
2022-12-16T07:10:31.145Z,2.40
2022-12-16T07:13:23.792Z,2.40
2022-12-16T07:16:09.865Z,2.50
2022-12-16T07:18:55.686Z,2.50
2022-12-16T07:21:41.730Z,2.50
2022-12-16T07:24:27.886Z,2.50
2022-12-16T07:27:15.449Z,2.50
2022-12-16T07:30:01.558Z,2.50
2022-12-16T07:32:47.632Z,2.50
2022-12-16T07:35:33.937Z,2.60
2022-12-16T07:38:19.713Z,2.60
2022-12-16T07:41:07.610Z,2.70
2022-12-16T07:43:55.009Z,2.70
2022-12-16T07:46:40.784Z,2.70
2022-12-16T07:49:26.690Z,2.70
2022-12-16T07:52:12.907Z,2.70
2022-12-16T07:54:58.970Z,2.70
2022-12-16T07:57:44.880Z,2.70
2022-12-16T08:00:33.117Z,2.70
2022-12-16T08:03:19.016Z,2.70
2022-12-16T08:06:05.082Z,2.70
2022-12-16T08:08:51.245Z,2.70
2022-12-16T08:11:36.942Z,2.70
2022-12-16T08:14:22.958Z,2.70
2022-12-16T08:17:19.057Z,2.70
2022-12-16T08:20:05.190Z,2.70
2022-12-16T08:22:47.697Z,2.70
2022-12-16T08:25:33.811Z,2.70
2022-12-16T08:28:19.848Z,2.70
2022-12-16T08:31:09.386Z,2.70
2022-12-16T08:33:57.059Z,2.80
2022-12-16T08:36:43.421Z,2.80
2022-12-16T08:39:29.488Z,2.80
2022-12-16T08:42:15.475Z,2.80
2022-12-16T08:45:00.766Z,2.90
2022-12-16T08:47:46.899Z,3.00
2022-12-16T08:50:34.797Z,3.00
2022-12-16T08:53:20.886Z,3.00
2022-12-16T08:56:06.704Z,3.00
2022-12-16T08:58:52.004Z,3.00
2022-12-16T09:01:38.528Z,3.00
2022-12-16T09:04:24.713Z,3.00
2022-12-16T09:07:12.100Z,3.00
2022-12-16T09:09:58.325Z,3.10
2022-12-16T09:12:44.372Z,3.20
2022-12-16T09:15:30.510Z,3.10
2022-12-16T09:18:16.405Z,3.20
2022-12-16T09:21:02.754Z,3.30
2022-12-16T09:23:50.281Z,3.30
2022-12-16T09:26:36.976Z,3.40
2022-12-16T09:29:23.218Z,3.50
2022-12-16T09:32:09.528Z,3.60
2022-12-16T09:34:55.934Z,3.60
2022-12-16T09:37:42.071Z,3.50
2022-12-16T09:40:35.274Z,3.50
2022-12-16T09:43:46.060Z,3.50
2022-12-16T09:46:43.697Z,3.50
2022-12-16T09:49:44.291Z,3.50
2022-12-16T09:52:37.463Z,3.50
2022-12-16T09:55:34.892Z,3.50
2022-12-16T09:58:22.924Z,3.50
2022-12-16T10:01:09.439Z,3.50
2022-12-16T10:03:58.550Z,3.50
2022-12-16T10:06:59.402Z,3.60
2022-12-16T10:09:53.614Z,3.60
2022-12-16T10:12:56.886Z,3.60
2022-12-16T10:15:58.283Z,3.60
2022-12-16T10:19:04.744Z,3.60
2022-12-16T10:21:58.871Z,3.60
2022-12-16T10:25:01.166Z,3.50
2022-12-16T10:28:00.327Z,3.40
2022-12-16T10:30:48.470Z,3.50
2022-12-16T10:33:37.667Z,3.50
2022-12-16T10:36:32.203Z,3.50
2022-12-16T10:39:25.815Z,3.50
2022-12-16T10:42:14.422Z,3.50
2022-12-16T10:45:12.160Z,3.60
2022-12-16T10:47:59.748Z,3.60
2022-12-16T10:50:42.474Z,3.50
2022-12-16T10:53:34.624Z,3.50
2022-12-16T10:56:43.931Z,3.40
2022-12-16T10:59:30.259Z,3.40
2022-12-16T11:02:18.944Z,3.40
2022-12-16T11:05:07.808Z,3.40
2022-12-16T11:08:08.990Z,3.40
2022-12-16T11:10:58.233Z,3.40
2022-12-16T11:13:47.225Z,3.40
2022-12-16T11:16:38.352Z,3.30
2022-12-16T11:19:38.627Z,3.30
2022-12-16T11:22:34.578Z,3.30
2022-12-16T11:25:33.304Z,3.20
2022-12-16T11:28:24.872Z,3.20
2022-12-16T11:31:17.140Z,3.20
2022-12-16T11:34:10.091Z,3.30
2022-12-16T11:37:00.026Z,3.30
2022-12-16T11:39:51.531Z,3.40
2022-12-16T11:42:42.718Z,3.30
2022-12-16T11:45:35.119Z,3.40
2022-12-16T11:48:35.136Z,3.40
2022-12-16T11:51:23.989Z,3.40
2022-12-16T11:54:18.028Z,3.40
2022-12-16T11:57:06.651Z,3.30
2022-12-16T11:59:59.522Z,3.30
2022-12-16T12:02:55.849Z,3.20
2022-12-16T12:05:52.592Z,3.20
2022-12-16T12:08:51.503Z,3.10
2022-12-16T12:11:47.558Z,3.10
2022-12-16T12:14:59.515Z,3.10
2022-12-16T12:17:59.675Z,3.10
2022-12-16T12:21:04.766Z,3.10
2022-12-16T12:24:04.815Z,3.10
2022-12-16T12:26:53.791Z,3.10
2022-12-16T12:29:57.005Z,3.00
2022-12-16T12:33:00.071Z,3.00
2022-12-16T12:36:25.396Z,3.00
2022-12-16T12:39:26.400Z,3.10
2022-12-16T12:42:30.281Z,3.00
2022-12-16T12:45:42.315Z,2.90
2022-12-16T12:48:40.496Z,2.90
2022-12-16T12:51:36.962Z,2.90
2022-12-16T12:54:34.974Z,2.90
2022-12-16T12:57:23.331Z,2.80
2022-12-16T13:00:17.806Z,2.80
2022-12-16T13:03:17.740Z,2.60
2022-12-16T13:06:04.629Z,2.60
2022-12-16T13:09:11.970Z,2.50
2022-12-16T13:12:33.847Z,2.50
2022-12-16T13:15:23.859Z,2.50
2022-12-16T13:18:43.175Z,2.50
2022-12-16T13:22:04.235Z,2.50
2022-12-16T13:25:04.118Z,2.50
2022-12-16T13:28:10.292Z,2.50
2022-12-16T13:31:05.122Z,2.50
2022-12-16T13:33:53.858Z,2.40
2022-12-16T13:36:53.462Z,2.50
2022-12-16T13:39:51.517Z,2.50
2022-12-16T13:43:12.474Z,2.60
2022-12-16T13:46:02.371Z,2.60
2022-12-16T13:48:59.351Z,2.60
2022-12-16T13:52:20.610Z,2.60
2022-12-16T13:55:25.116Z,2.50
2022-12-16T13:58:22.174Z,2.40
2022-12-16T14:01:23.773Z,2.30
2022-12-16T14:04:12.608Z,2.20
2022-12-16T14:06:59.654Z,2.20
2022-12-16T14:09:55.967Z,2.30
2022-12-16T14:13:06.235Z,2.30
2022-12-16T14:16:07.423Z,2.20
2022-12-16T14:19:05.888Z,2.30
2022-12-16T14:22:03.373Z,2.20
2022-12-16T14:24:49.789Z,2.20
2022-12-16T14:27:39.851Z,2.20
2022-12-16T14:30:40.733Z,2.20
2022-12-16T14:33:42.337Z,2.20
2022-12-16T14:36:41.105Z,2.20
2022-12-16T14:39:40.306Z,2.20
2022-12-16T14:42:37.797Z,2.10
2022-12-16T14:45:38.947Z,2.00
2022-12-16T14:48:47.467Z,2.00
2022-12-16T14:51:44.550Z,2.00
2022-12-16T14:54:44.857Z,2.10
2022-12-16T14:57:36.017Z,2.10
2022-12-16T15:00:34.675Z,2.10
2022-12-16T15:03:32.779Z,2.10
2022-12-16T15:06:23.609Z,2.00
2022-12-16T15:09:14.085Z,2.00
2022-12-16T15:12:03.279Z,2.00
2022-12-16T15:14:54.591Z,2.00
2022-12-16T15:17:42.940Z,2.00
2022-12-16T15:20:39.278Z,2.20
2022-12-16T15:23:37.823Z,2.30
2022-12-16T15:26:24.893Z,2.60
2022-12-16T15:29:12.954Z,2.60
2022-12-16T15:32:03.173Z,2.50
2022-12-16T15:34:57.128Z,2.50
2022-12-16T15:37:49.571Z,2.50
2022-12-16T15:40:45.118Z,2.40
2022-12-16T15:43:45.566Z,2.40
2022-12-16T15:46:41.874Z,2.30
2022-12-16T15:49:40.319Z,2.30
2022-12-16T15:52:49.220Z,2.30
2022-12-16T15:55:49.371Z,2.30
2022-12-16T15:58:43.899Z,2.20
2022-12-16T16:01:34.082Z,2.10
2022-12-16T16:04:22.201Z,2.10
2022-12-16T16:07:10.810Z,2.10
2022-12-16T16:09:58.241Z,2.00
2022-12-16T16:12:44.829Z,2.00
2022-12-16T16:15:32.777Z,2.00
2022-12-16T16:18:22.655Z,2.00
2022-12-16T16:21:10.643Z,2.00
2022-12-16T16:23:57.142Z,2.00
2022-12-16T16:26:46.571Z,1.90
2022-12-16T16:29:32.862Z,1.90
2022-12-16T16:32:20.358Z,1.90
2022-12-16T16:35:09.333Z,2.00
2022-12-16T16:38:08.872Z,2.00
2022-12-16T16:40:57.429Z,1.90
2022-12-16T16:43:44.482Z,1.90
2022-12-16T16:46:55.105Z,1.90
2022-12-16T16:49:48.087Z,1.80
2022-12-16T16:52:37.624Z,1.80
2022-12-16T16:55:33.395Z,1.80
2022-12-16T16:58:19.809Z,1.80
2022-12-16T17:01:14.493Z,1.80
2022-12-16T17:04:01.400Z,1.80
2022-12-16T17:06:58.990Z,1.80
2022-12-16T17:09:45.024Z,1.90
2022-12-16T17:12:39.022Z,1.80
2022-12-16T17:15:39.683Z,1.90
2022-12-16T17:18:26.646Z,1.90
2022-12-16T17:21:13.157Z,1.80
2022-12-16T17:23:59.701Z,1.80
2022-12-16T17:26:46.269Z,1.80
2022-12-16T17:29:39.667Z,1.80
2022-12-16T17:32:26.645Z,1.70
2022-12-16T17:35:12.989Z,1.80
2022-12-16T17:37:59.495Z,1.70
2022-12-16T17:40:46.329Z,1.80
2022-12-16T17:43:33.086Z,1.80
2022-12-16T17:46:24.276Z,1.80
2022-12-16T17:49:11.232Z,1.80
2022-12-16T17:51:58.084Z,1.70
2022-12-16T17:54:44.603Z,1.70
2022-12-16T17:57:30.619Z,1.60
2022-12-16T18:00:17.053Z,1.60
2022-12-16T18:03:04.622Z,1.60
2022-12-16T18:05:51.100Z,1.60
2022-12-16T18:08:37.290Z,1.60
2022-12-16T18:11:23.533Z,1.50
2022-12-16T18:14:09.609Z,1.50
2022-12-16T18:16:55.706Z,1.60
2022-12-16T18:19:43.705Z,1.60
2022-12-16T18:22:29.871Z,1.70
2022-12-16T18:25:15.909Z,1.70
2022-12-16T18:28:01.997Z,1.70
2022-12-16T18:30:48.167Z,1.60
2022-12-16T18:33:34.443Z,1.60
2022-12-16T18:36:22.692Z,1.60
2022-12-16T18:39:08.884Z,1.60
2022-12-16T18:42:01.690Z,1.60
2022-12-16T18:44:48.139Z,1.60
2022-12-16T18:47:34.489Z,1.50
2022-12-16T18:50:27.212Z,1.50
2022-12-16T18:53:16.316Z,1.50
2022-12-16T18:56:02.308Z,1.50
2022-12-16T18:58:52.124Z,1.40
2022-12-16T19:01:38.655Z,1.30
2022-12-16T19:04:25.302Z,1.30
2022-12-16T19:07:11.702Z,1.20
2022-12-16T19:09:58.816Z,1.20
2022-12-16T19:12:44.834Z,1.20
2022-12-16T19:15:30.833Z,1.20
2022-12-16T19:18:16.788Z,1.10
2022-12-16T19:21:02.577Z,1.10
2022-12-16T19:23:45.058Z,1.10
2022-12-16T19:26:32.667Z,1.00
2022-12-16T19:29:19.024Z,0.90
2022-12-16T19:32:05.694Z,0.90
2022-12-16T19:34:52.134Z,0.90
2022-12-16T19:37:38.442Z,0.80
2022-12-16T19:40:30.595Z,0.90
2022-12-16T19:43:20.510Z,0.90
2022-12-16T19:46:16.472Z,0.90
2022-12-16T19:49:05.483Z,1.00
2022-12-16T19:51:56.245Z,0.90
2022-12-16T19:54:59.865Z,1.00
2022-12-16T19:57:47.578Z,0.90
2022-12-16T20:00:39.829Z,0.90
2022-12-16T20:03:47.990Z,0.90
2022-12-16T20:06:43.447Z,1.00
2022-12-16T20:09:29.571Z,1.00
2022-12-16T20:12:21.781Z,1.00
2022-12-16T20:15:16.559Z,0.90
2022-12-16T20:18:07.859Z,0.90
2022-12-16T20:20:56.995Z,0.90
2022-12-16T20:23:48.118Z,0.90
2022-12-16T20:26:35.910Z,1.00
2022-12-16T20:29:26.737Z,1.00
2022-12-16T20:32:17.321Z,0.90
2022-12-16T20:35:33.957Z,0.90
2022-12-16T20:38:20.440Z,1.00
2022-12-16T20:41:15.512Z,0.90
2022-12-16T20:44:01.891Z,1.00
2022-12-16T20:46:48.466Z,1.00
2022-12-16T20:49:36.330Z,0.90
2022-12-16T20:52:44.095Z,0.90
2022-12-16T20:55:32.663Z,0.90
2022-12-16T20:58:25.058Z,0.90
2022-12-16T21:01:18.391Z,1.00
2022-12-16T21:04:04.519Z,0.80
2022-12-16T21:06:50.501Z,0.90
2022-12-16T21:09:39.407Z,0.90
2022-12-16T21:15:11.863Z,1.10
2022-12-16T21:17:58.154Z,1.50
2022-12-16T21:20:44.120Z,1.40
2022-12-16T21:23:31.578Z,1.40
2022-12-16T21:26:19.590Z,1.30
2022-12-16T21:29:06.131Z,1.20
2022-12-16T21:31:52.131Z,1.10
2022-12-16T21:34:39.678Z,1.20
2022-12-16T21:37:25.719Z,1.20
